createdAt,value
2017-06-12T00:01:33.495Z,59.55
2017-06-12T00:03:57.994Z,59.84
2017-06-12T00:06:14.021Z,59.64
2017-06-12T00:08:38.573Z,59.64
2017-06-12T00:11:03.157Z,59.84
2017-06-12T00:13:27.765Z,60.03
2017-06-12T00:15:43.852Z,60.32
2017-06-12T00:18:08.347Z,59.36
2017-06-12T00:20:24.440Z,59.84
2017-06-12T00:22:48.932Z,59.45
2017-06-12T00:24:50.523Z,59.06
2017-06-12T00:27:06.681Z,59.16
2017-06-12T00:29:22.776Z,59.06
2017-06-12T00:31:47.265Z,59.74
2017-06-12T00:34:03.292Z,60.1
2017-06-12T00:36:19.351Z,60.3
2017-06-12T00:38:43.842Z,60.97
2017-06-12T00:41:08.336Z,60.88
2017-06-12T00:43:32.828Z,60.88
2017-06-12T00:45:57.319Z,60.68
2017-06-12T00:48:21.812Z,60.78
2017-06-12T00:50:37.914Z,60.3
2017-06-12T00:53:02.398Z,59.74
2017-06-12T00:55:03.879Z,60.42
2017-06-12T00:57:28.442Z,60.3
2017-06-12T00:59:52.933Z,60.3
2017-06-12T01:01:54.405Z,60.68
2017-06-12T01:04:18.983Z,60.39
2017-06-12T01:06:34.968Z,60.88
2017-06-12T01:08:50.959Z,60.78
2017-06-12T01:11:01.005Z,60.78
2017-06-12T01:13:17.006Z,60.2
2017-06-12T01:15:41.497Z,60.1
2017-06-12T01:18:05.889Z,60.2
2017-06-12T01:20:30.278Z,59.33
2017-06-12T01:22:54.653Z,59.91
2017-06-12T01:25:19.154Z,59.91
2017-06-12T01:27:26.746Z,59.03
2017-06-12T01:29:51.244Z,59.23
2017-06-12T01:32:15.738Z,58.77
2017-06-12T01:34:40.228Z,58.67
2017-06-12T01:37:04.717Z,58.84
2017-06-12T01:39:29.208Z,58.48
2017-06-12T01:41:53.701Z,58.48
2017-06-12T01:44:18.195Z,58.29
2017-06-12T01:46:42.682Z,58.48
2017-06-12T01:49:07.178Z,58.74
2017-06-12T01:51:31.683Z,58.67
2017-06-12T01:53:56.157Z,59.16
2017-06-12T01:56:20.653Z,59.26
2017-06-12T01:58:22.122Z,59.16
2017-06-12T02:00:46.596Z,59.52
2017-06-12T02:03:11.082Z,59.64
2017-06-12T02:05:35.574Z,59.94
2017-06-12T02:07:51.623Z,60.49
2017-06-12T02:10:16.059Z,60.97
2017-06-12T02:12:32.048Z,60.78
2017-06-12T02:14:56.545Z,60.97
2017-06-12T02:17:21.042Z,60.68
2017-06-12T02:19:31.072Z,60.78
2017-06-12T02:21:55.585Z,60.58
2017-06-12T02:24:20.067Z,61.36
2017-06-12T02:26:36.067Z,61.65
2017-06-12T02:28:52.155Z,61.55
2017-06-12T02:31:16.648Z,60.78
2017-06-12T02:33:41.144Z,60.91
2017-06-12T02:36:05.633Z,61.85
2017-06-12T02:38:30.124Z,61.94
2017-06-12T02:40:46.118Z,61.26
2017-06-12T02:43:10.610Z,61.55
2017-06-12T02:45:35.106Z,61.36
2017-06-12T02:47:59.600Z,61.72
2017-06-12T02:50:24.086Z,61.85
2017-06-12T02:52:48.581Z,61.26
2017-06-12T02:55:13.071Z,61.85
2017-06-12T02:57:37.565Z,61.85
2017-06-12T02:59:53.593Z,62.01
2017-06-12T03:02:18.850Z,62.1
2017-06-12T03:04:43.354Z,62.33
2017-06-12T03:06:50.991Z,62.72
2017-06-12T03:09:15.443Z,62.88
2017-06-12T03:11:17.438Z,62.59
2017-06-12T03:13:41.996Z,61.65
2017-06-12T03:16:06.493Z,62.23
2017-06-12T03:18:30.979Z,62.72
2017-06-12T03:20:55.473Z,62.59
2017-06-12T03:23:11.464Z,63.01
2017-06-12T03:25:35.959Z,62.33
2017-06-12T03:28:00.453Z,62.91
2017-06-12T03:30:24.936Z,62.33
2017-06-12T03:32:49.432Z,63.46
2017-06-12T03:35:13.922Z,62.4
2017-06-12T03:37:38.411Z,62.69
2017-06-12T03:39:45.948Z,62.59
2017-06-12T03:42:10.396Z,61.94
2017-06-12T03:44:34.887Z,62.04
2017-06-12T03:46:59.377Z,61.91
2017-06-12T03:49:23.868Z,62.01
2017-06-12T03:51:48.360Z,61.55
2017-06-12T03:54:12.858Z,60.78
2017-06-12T03:56:28.849Z,60.49
2017-06-12T03:58:44.834Z,60.88
2017-06-12T04:01:09.337Z,60.52
2017-06-12T04:03:25.323Z,60.49
2017-06-12T04:05:49.815Z,60.88
2017-06-12T04:08:05.847Z,60.49
2017-06-12T04:10:30.399Z,60.97
2017-06-12T04:12:54.887Z,60.88
2017-06-12T04:15:19.382Z,60.49
2017-06-12T04:17:20.849Z,60.68
2017-06-12T04:19:45.428Z,60.88
2017-06-12T04:21:44.560Z,61.07
2017-06-12T04:24:09.028Z,60.88
2017-06-12T04:26:33.508Z,61.65
2017-06-12T04:28:58.000Z,60.88
2017-06-12T04:31:22.492Z,60.78
2017-06-12T04:33:46.984Z,60.49
2017-06-12T04:36:11.479Z,60.49
2017-06-12T04:38:13.474Z,61.46
2017-06-12T04:40:37.927Z,62.01
2017-06-12T04:43:02.427Z,61.46
2017-06-12T04:45:26.917Z,61.46
2017-06-12T04:47:51.409Z,61.46
2017-06-12T04:50:15.894Z,60.88
2017-06-12T04:52:25.934Z,61.36
2017-06-12T04:54:33.483Z,61.46
2017-06-12T04:56:57.926Z,61.62
2017-06-12T04:58:59.432Z,60.78
2017-06-12T05:01:15.474Z,60.81
2017-06-12T05:03:39.967Z,59.58
2017-06-12T05:05:55.972Z,53.23
2017-06-12T05:08:12.065Z,55.19
2017-06-12T05:10:28.184Z,56.62
2017-06-12T05:12:52.851Z,57.28
2017-06-12T05:15:08.989Z,57.47
2017-06-12T05:17:33.641Z,57.57
2017-06-12T05:19:58.243Z,57.47
2017-06-12T05:22:22.845Z,57.96
2017-06-12T05:24:47.421Z,57.57
2017-06-12T05:27:12.021Z,58.51
2017-06-12T05:29:36.617Z,58.41
2017-06-12T05:32:01.208Z,58.7
2017-06-12T05:34:25.797Z,59.09
2017-06-12T05:36:41.898Z,59.19
2017-06-12T05:39:06.492Z,59.38
2017-06-12T05:41:31.085Z,57.47
2017-06-12T05:43:55.678Z,57.08
2017-06-12T05:46:20.278Z,55.39
2017-06-12T05:48:36.478Z,50.75
2017-06-12T05:51:01.181Z,48.29
2017-06-12T05:53:26.118Z,50.16
2017-06-12T05:55:50.887Z,51.02
2017-06-12T05:58:01.531Z,52.84
2017-06-12T06:00:26.344Z,52.45
2017-06-12T06:02:42.717Z,54.18
2017-06-12T06:05:07.437Z,53.2
2017-06-12T06:07:32.235Z,54.54
2017-06-12T06:09:57.038Z,55.29
2017-06-12T06:12:21.832Z,56.14
2017-06-12T06:14:38.036Z,58.31
2017-06-12T06:16:54.254Z,57.86
2017-06-12T06:19:18.921Z,56.34
2017-06-12T06:21:26.647Z,55.98
2017-06-12T06:23:51.319Z,55.68
2017-06-12T06:26:16.015Z,56.14
2017-06-12T06:28:40.604Z,56.26
2017-06-12T06:30:56.831Z,55.49
2017-06-12T06:33:21.497Z,55.29
2017-06-12T06:35:23.608Z,54.57
2017-06-12T06:37:48.361Z,53.62
2017-06-12T06:40:13.065Z,55.03
2017-06-12T06:42:37.758Z,54.44
2017-06-12T06:44:53.956Z,57.37
2017-06-12T06:47:18.642Z,57.67
2017-06-12T06:49:43.358Z,59.38
2017-06-12T06:52:08.041Z,59.38
2017-06-12T06:54:09.558Z,58.54
2017-06-12T06:56:25.791Z,57.69
2017-06-12T06:58:50.382Z,59.19
2017-06-12T07:01:14.978Z,59.58
2017-06-12T07:03:31.178Z,60.81
2017-06-12T07:05:55.770Z,60.84
2017-06-12T07:08:05.852Z,60.55
2017-06-12T07:10:30.527Z,60.94
2017-06-12T07:12:55.108Z,59.8
2017-06-12T07:15:19.708Z,60.55
2017-06-12T07:17:35.800Z,61.49
2017-06-12T07:19:43.432Z,60.94
2017-06-12T07:22:07.984Z,60.09
2017-06-12T07:24:32.587Z,60.64
2017-06-12T07:26:57.179Z,61.13
2017-06-12T07:29:21.908Z,60.84
2017-06-12T15:58:05.069Z,29.26
2017-06-12T16:00:29.719Z,29.47
2017-06-12T16:02:45.953Z,29.25
2017-06-12T16:05:10.646Z,28.97
2017-06-12T16:07:35.331Z,28.09
2017-06-12T16:10:00.030Z,27.9
2017-06-12T16:12:24.734Z,27.51
2017-06-12T16:14:49.521Z,28.39
2017-06-12T16:17:14.230Z,28.29
2017-06-12T16:19:30.452Z,31.11
2017-06-12T16:21:46.638Z,28.29
2017-06-12T16:24:11.418Z,28.3
2017-06-12T16:26:36.115Z,28.19
2017-06-12T16:29:00.811Z,29.16
2017-06-12T16:31:25.514Z,28.11
2017-06-12T16:33:50.209Z,28.49
2017-06-12T16:36:14.901Z,28.19
2017-06-12T16:38:31.240Z,28.68
2017-06-12T16:40:55.901Z,28.58
2017-06-12T16:43:12.227Z,28.58
2017-06-12T16:45:36.997Z,28.76
2017-06-12T16:48:01.684Z,28.96
2017-06-12T16:50:26.383Z,28.49
2017-06-12T16:52:42.585Z,29.83
2017-06-12T16:55:07.282Z,29.46
2017-06-12T16:57:31.976Z,30.04
2017-06-12T16:59:56.680Z,29.16
2017-06-12T17:02:21.373Z,28.96
2017-06-12T17:04:37.601Z,28.58
2017-06-12T17:07:02.373Z,28.38
2017-06-12T17:09:18.591Z,29.05
2017-06-12T17:11:43.252Z,29.64
2017-06-12T17:13:59.485Z,30.51
2017-06-12T17:16:24.145Z,30.22
2017-06-12T17:18:48.852Z,31.19
2017-06-12T17:21:13.445Z,31.29
2017-06-12T17:23:38.150Z,31.19
2017-06-12T17:26:02.836Z,31.19
2017-06-12T17:28:27.537Z,31.65
2017-06-12T17:30:52.223Z,31.84
2017-06-12T17:33:16.917Z,31.37
2017-06-12T17:35:41.617Z,31.84
2017-06-12T17:37:43.653Z,31.55
2017-06-12T17:40:08.283Z,31.76
2017-06-12T17:42:32.877Z,32.04
2017-06-12T17:44:57.455Z,32.52
2017-06-12T17:47:13.558Z,31.65
2017-06-12T17:49:38.147Z,31.73
2017-06-12T17:51:40.149Z,32.23
2017-06-12T17:54:04.729Z,31.34
2017-06-12T17:56:20.817Z,32.41
2017-06-12T17:58:45.397Z,33.28
2017-06-12T18:01:09.992Z,31.92
2017-06-12T18:03:26.122Z,32.21
2017-06-12T18:05:36.192Z,31.84
2017-06-12T18:07:52.336Z,32.5
2017-06-12T18:10:16.930Z,32.5
2017-06-12T18:12:41.842Z,32.12
2017-06-12T18:15:07.331Z,32.02
2017-06-12T18:17:31.122Z,32.41
2017-06-12T18:19:55.719Z,32.87
2017-06-12T18:22:20.312Z,33.17
2017-06-12T18:24:36.443Z,33.65
2017-06-12T18:27:00.999Z,33.46
2017-06-12T18:29:17.088Z,33.65
2017-06-12T18:31:41.688Z,33.84
2017-06-12T18:34:06.281Z,33.92
2017-06-12T18:36:22.373Z,34.7
2017-06-12T18:38:46.980Z,33.92
2017-06-12T18:41:11.572Z,33.83
2017-06-12T18:43:36.153Z,33.92
2017-06-12T18:45:52.253Z,34.02
2017-06-12T18:48:18.343Z,34.61
2017-06-12T18:50:41.331Z,34.22
2017-06-12T18:52:57.440Z,34.31
2017-06-12T18:55:22.029Z,34.89
2017-06-12T18:57:46.615Z,34.41
2017-06-12T19:00:11.107Z,34.78
2017-06-12T19:02:27.140Z,35.48
2017-06-12T19:04:51.691Z,35.27
2017-06-12T19:07:16.190Z,34.97
2017-06-12T19:09:40.690Z,36.33
2017-06-12T19:12:05.070Z,36.24
2017-06-12T19:14:29.556Z,36.14
2017-06-12T19:16:45.594Z,36.8
2017-06-12T19:19:10.044Z,37.09
2017-06-12T19:21:26.033Z,37.48
2017-06-12T19:23:50.532Z,37.96
2017-06-12T19:26:14.912Z,37.28
2017-06-12T19:28:39.397Z,38.53
2017-06-12T19:30:55.398Z,39.01
2017-06-12T19:33:19.901Z,39.32
2017-06-12T19:35:35.913Z,39.2
2017-06-12T19:38:00.365Z,40.56
2017-06-12T19:40:16.361Z,39.97
2017-06-12T19:42:40.809Z,40.46
2017-06-12T19:45:05.128Z,40.63
2017-06-12T19:47:29.539Z,40.63
2017-06-12T19:49:53.933Z,41.31
2017-06-12T19:52:18.306Z,41.21
2017-06-12T19:54:34.298Z,40.83
2017-06-12T19:56:58.695Z,41.6
2017-06-12T19:59:23.070Z,41.48
2017-06-12T20:01:33.590Z,41.19
2017-06-12T20:03:58.033Z,41.87
2017-06-12T20:06:22.332Z,42.16
2017-06-12T20:08:46.712Z,42.45
2017-06-12T20:11:11.101Z,42.35
2017-06-12T20:13:35.487Z,42.07
2017-06-12T20:15:59.876Z,42.52
2017-06-12T20:18:15.756Z,42.91
2017-06-12T20:20:40.160Z,42.62
2017-06-12T20:22:56.005Z,42.52
2017-06-12T20:25:20.332Z,42.14
2017-06-12T20:27:22.554Z,42.52
2017-06-12T20:29:46.992Z,42.04
2017-06-12T20:32:11.387Z,42.43
2017-06-12T20:34:35.769Z,43.47
2017-06-12T20:37:04.662Z,43.18
2017-06-12T20:39:29.049Z,43.28
2017-06-12T20:41:44.889Z,43.35
2017-06-12T20:44:09.221Z,43.18
2017-06-12T20:46:33.506Z,43.26
2017-06-12T20:48:57.793Z,43.16
2017-06-12T20:51:22.081Z,43.54
2017-06-12T20:53:46.477Z,43.35
2017-06-12T20:56:02.365Z,43.54
2017-06-12T20:58:26.658Z,44.51
2017-06-12T21:00:50.947Z,44.6
2017-06-12T21:03:15.221Z,44.51
2017-06-12T21:05:39.508Z,45.18
2017-06-12T21:07:55.354Z,44.42
2017-06-12T21:10:19.581Z,44.59
2017-06-12T21:12:26.987Z,44.42
2017-06-12T21:14:42.867Z,44.49
2017-06-12T21:16:58.644Z,44.39
2017-06-12T21:19:22.943Z,44.68
2017-06-12T21:21:47.218Z,44.68
2017-06-12T21:24:11.520Z,44.39
2017-06-12T21:26:35.805Z,44.49
2017-06-12T21:28:45.781Z,43.84
2017-06-12T21:31:10.135Z,43.64
2017-06-12T21:33:34.421Z,43.62
2017-06-12T21:35:58.719Z,43.62
2017-06-12T21:38:22.995Z,44.49
2017-06-12T21:40:47.289Z,44.87
2017-06-12T21:43:11.571Z,46.01
2017-06-12T21:45:27.414Z,46.01
2017-06-12T21:47:28.836Z,46.2
2017-06-12T21:49:53.096Z,46.2
2017-06-12T21:52:17.387Z,46.2
2017-06-12T21:54:41.566Z,47.63
2017-06-12T21:57:05.859Z,47.24
2017-06-12T21:59:30.038Z,47.05
2017-06-12T22:01:54.225Z,47.63
2017-06-12T22:04:09.899Z,47.44
2017-06-12T22:06:34.086Z,47.24
2017-06-12T22:08:58.274Z,47.34
2017-06-12T22:11:22.461Z,47.34
2017-06-12T22:13:46.577Z,48.11
2017-06-12T22:16:10.825Z,47.72
2017-06-12T22:18:35.007Z,48.21
2017-06-12T22:20:59.193Z,48.69
2017-06-12T22:23:23.384Z,48.95
2017-06-12T22:25:47.563Z,48.76
2017-06-12T22:28:03.250Z,49.15
2017-06-12T22:30:18.928Z,49.34
2017-06-12T22:32:43.143Z,49.43
2017-06-12T22:35:07.273Z,49.53
2017-06-12T22:37:31.485Z,49.63
2017-06-12T22:39:55.655Z,49.53
2017-06-12T22:42:19.855Z,49.53
2017-06-12T22:44:44.035Z,49.63
2017-06-12T22:47:08.220Z,49.73
2017-06-12T22:49:23.965Z,49.53
2017-06-12T22:51:48.098Z,49.82
2017-06-12T22:54:12.275Z,49.43
2017-06-12T22:56:36.362Z,50.11
2017-06-12T22:58:46.282Z,49.89
2017-06-12T23:01:10.497Z,50.27
2017-06-12T23:03:34.670Z,50.49
2017-06-12T23:05:36.057Z,49.91
2017-06-12T23:07:37.510Z,49.82
2017-06-12T23:09:53.262Z,50.49
2017-06-12T23:12:09.006Z,49.91
2017-06-12T23:14:33.125Z,49.91
2017-06-12T23:16:57.208Z,49.73
2017-06-12T23:19:21.391Z,49.91
2017-06-12T23:21:45.573Z,49.63
2017-06-12T23:24:01.267Z,49.63
2017-06-12T23:26:25.450Z,49.82
2017-06-12T23:28:49.627Z,49.53
2017-06-12T23:31:13.714Z,49.73
2017-06-12T23:33:29.399Z,49.63
2017-06-12T23:35:53.587Z,49.73
2017-06-12T23:38:03.570Z,49.99
2017-06-12T23:40:27.728Z,49.63
2017-06-12T23:42:51.908Z,49.63
2017-06-12T23:45:07.594Z,49.82
2017-06-12T23:47:31.770Z,49.91
2017-06-12T23:49:47.454Z,50.4
2017-06-12T23:52:03.208Z,50.69
2017-06-12T23:54:27.328Z,50.4
2017-06-12T23:56:43.029Z,50.21
2017-06-12T23:59:07.078Z,50.49
